Bei Facebook empfehlenBei Twitter postenGoogle plusPinterest

Das Wetter im Erzgebirge am 24.05.2015

Wetter und Klima am 24.05.2015 Holzhau im Erzgebirge (630m ü.NN)
Letzte gemessene Temperatur und Uhrzeit der Messung23:45:00 Uhr7.00 °C
Temperatur (Maximum / Höchstwert) und Uhrzeit der Messung16:00:00 Uhr19.80 °C
Temperatur (Minimum / Tiefstwert) und Uhrzeit der Messung23:45:007.00 °C
Errechneter Absolutwert der Temperaturschwankungen zwischen Tmin und Tmax des Tages12.80 K
Errechnete Tagesmitteltemperatur12.58646 °C
Gesamt - Niederschlag des Tages (in flüssiger Form)0.00 Liter / m²
Luftdruck (Maximum / Höchstwert) und Zeitpunkt der Messung11:30:00 Uhr1018.10 hPa
Luftdruck (Minimum / Tiefstwert) und Zeitpunkt der Messung19:15:00 Uhr1015.60 hPa
Errechneter Absolutwert der Luftdruckschwankungen des Tages2.50 hPa
Höchste gemessene Windgeschwindigkeit und Uhrzeit der Messung23:45:00 Uhr0.00 km/h
Errechnete Windhäufigkeit in Relation zu den Messwerten des Tages0.00000 %
Niedrigste Windkühle (Windchill) und Zeitpunkt der Messung23:45:00 Uhr7.00 °C
Taupunkt (Maximum / Höchstwert) und Uhrzeit der Messung16:00:00 Uhr11.30 °C
Taupunkt (Minimum / Tiefstwert) und Uhrzeit der Messung23:45:004.80 °C
Anzahl der automatisch eingelesenen Messwerte 96

Detaillierte Wetter- und Klima- Messwerte für den 24.05.2015 in Holzhau im Erzgebirge (630m ü.NN)
ZeitTemperaturLuftdruckRel. LuftfeuchteWindWindrichtungWindchillTaupunktNiederschlag l/m²
23:45:007.00 °C1015.90 hPa86.00 %4.80 °C 
23:30:007.40 °C1015.90 hPa86.00 %5.20 °C 
23:15:007.80 °C1015.90 hPa86.00 %5.60 °C 
23:00:007.90 °C1015.90 hPa85.00 %5.50 °C 
22:45:008.10 °C1016.00 hPa83.00 %5.40 °C 
22:30:008.30 °C1015.90 hPa82.00 %5.40 °C 
22:15:008.80 °C1016.00 hPa79.00 %5.40 °C 
22:00:009.60 °C1016.10 hPa78.00 %6.00 °C 
21:45:0010.40 °C1016.00 hPa75.00 %6.20 °C 
21:30:0011.50 °C1016.00 hPa73.00 %6.80 °C 
21:15:0012.40 °C1016.00 hPa70.00 %7.10 °C 
21:00:0013.60 °C1015.70 hPa68.00 %7.80 °C 
20:45:0014.90 °C1015.70 hPa66.00 %8.60 °C 
20:30:0015.50 °C1015.80 hPa65.00 %9.00 °C 
20:15:0015.90 °C1015.70 hPa63.00 %8.90 °C 
20:00:0016.70 °C1015.70 hPa61.00 %9.10 °C 
19:45:0017.20 °C1015.70 hPa60.00 %9.40 °C 
19:30:0017.40 °C1015.70 hPa59.00 %9.30 °C 
19:15:0017.80 °C1015.60 hPa57.00 %9.20 °C 
19:00:0018.10 °C1015.60 hPa58.00 %9.70 °C 
18:45:0018.10 °C1015.70 hPa58.00 %9.70 °C 
18:30:0018.30 °C1015.90 hPa57.00 %9.60 °C 
18:15:0018.60 °C1015.80 hPa57.00 %9.90 °C 
18:00:0018.40 °C1015.90 hPa58.00 %10.00 °C 
17:45:0018.40 °C1016.10 hPa58.00 %10.00 °C 
17:30:0018.40 °C1016.20 hPa57.00 %9.70 °C 
17:15:0018.80 °C1016.20 hPa58.00 %10.40 °C 
17:00:0018.60 °C1016.50 hPa59.00 %10.40 °C 
16:45:0019.00 °C1016.60 hPa57.00 %10.30 °C 
16:30:0019.30 °C1016.60 hPa58.00 %10.80 °C 
16:15:0019.30 °C1016.80 hPa57.00 %10.60 °C 
16:00:0019.80 °C1016.90 hPa58.00 %11.30 °C 
15:45:0019.40 °C1016.90 hPa59.00 %11.20 °C 
15:30:0018.50 °C1017.20 hPa60.00 %10.60 °C 
15:15:0017.60 °C1017.10 hPa64.00 %10.70 °C 
15:00:0017.10 °C1017.30 hPa63.00 %10.00 °C 
14:45:0017.30 °C1017.30 hPa63.00 %10.20 °C 
14:30:0017.40 °C1017.40 hPa64.00 %10.50 °C 
14:15:0017.40 °C1017.50 hPa67.00 %11.20 °C 
14:00:0015.30 °C1017.90 hPa70.00 %9.90 °C 
13:45:0014.90 °C1017.90 hPa71.00 %9.70 °C 
13:30:0015.40 °C1017.80 hPa70.00 %10.00 °C 
13:15:0015.10 °C1018.00 hPa73.00 %10.30 °C 
13:00:0014.10 °C1018.00 hPa76.00 %9.90 °C 
12:45:0013.90 °C1018.00 hPa76.00 %9.70 °C 
12:30:0013.80 °C1018.00 hPa77.00 %9.80 °C 
12:15:0014.40 °C1018.00 hPa78.00 %10.60 °C 
12:00:0014.20 °C1017.90 hPa82.00 %11.20 °C 
11:45:0012.50 °C1018.00 hPa86.00 %10.20 °C 
11:30:0011.50 °C1018.10 hPa87.00 %9.40 °C 
11:15:0010.90 °C1018.10 hPa88.00 %9.00 °C 
11:00:0010.70 °C1018.00 hPa88.00 %8.80 °C 
10:45:0011.10 °C1018.00 hPa88.00 %9.20 °C 
10:30:0011.10 °C1017.90 hPa90.00 %9.50 °C 
10:15:0010.30 °C1017.80 hPa90.00 %8.70 °C 
10:00:0010.10 °C1017.70 hPa90.00 %8.50 °C 
09:45:0010.10 °C1017.80 hPa90.00 %8.50 °C 
09:30:0010.10 °C1017.60 hPa90.00 %8.50 °C 
09:15:0010.10 °C1017.40 hPa90.00 %8.50 °C 
09:00:009.90 °C1017.20 hPa91.00 %8.50 °C 
08:45:009.80 °C1017.30 hPa91.00 %8.40 °C 
08:30:009.60 °C1017.40 hPa91.00 %8.20 °C 
08:15:009.60 °C1017.30 hPa91.00 %8.20 °C 
08:00:009.60 °C1017.20 hPa90.00 %8.00 °C 
07:45:009.60 °C1017.10 hPa90.00 %8.00 °C 
07:30:009.80 °C1016.80 hPa90.00 %8.20 °C 
07:15:009.90 °C1016.80 hPa90.00 %8.30 °C 
07:00:009.80 °C1016.80 hPa90.00 %8.20 °C 
06:45:009.80 °C1016.70 hPa90.00 %8.20 °C 
06:30:009.80 °C1016.60 hPa90.00 %8.20 °C 
06:15:009.90 °C1016.60 hPa89.00 %8.20 °C 
06:00:009.90 °C1016.50 hPa89.00 %8.20 °C 
05:45:0010.10 °C1016.40 hPa89.00 %8.40 °C 
05:30:0010.10 °C1016.40 hPa89.00 %8.40 °C 
05:15:0010.20 °C1016.20 hPa88.00 %8.30 °C 
05:00:0010.30 °C1016.20 hPa88.00 %8.40 °C 
04:45:0010.30 °C1016.30 hPa88.00 %8.40 °C 
04:30:0010.30 °C1016.40 hPa87.00 %8.20 °C 
04:15:0010.40 °C1016.40 hPa87.00 %8.30 °C 
04:00:0010.30 °C1016.40 hPa87.00 %8.20 °C 
03:45:0010.30 °C1016.30 hPa87.00 %8.20 °C 
03:30:0010.10 °C1016.40 hPa86.00 %7.90 °C 
03:15:009.90 °C1016.50 hPa85.00 %7.50 °C 
03:00:009.60 °C1016.40 hPa85.00 %7.20 °C 
02:45:009.40 °C1016.50 hPa83.00 %6.70 °C 
02:30:009.50 °C1016.60 hPa83.00 %6.80 °C 
02:15:009.60 °C1016.70 hPa81.00 %6.50 °C 
02:00:009.60 °C1016.70 hPa80.00 %6.30 °C 
01:45:009.50 °C1016.70 hPa80.00 %6.20 °C 
01:30:009.50 °C1016.80 hPa80.00 %6.20 °C 
01:15:009.50 °C1016.70 hPa80.00 %6.20 °C 
01:00:009.60 °C1016.70 hPa80.00 %6.30 °C 
00:45:009.50 °C1016.50 hPa80.00 %6.20 °C 
00:30:009.40 °C1016.50 hPa79.00 %5.90 °C 
00:15:009.40 °C1016.60 hPa79.00 %5.90 °C 
00:00:009.30 °C1016.50 hPa79.00 %5.90 °C 

Permanenter Link zu dieser Seite: Wetter im Erzgebirge am 24.05.2015
Performance-Info: Die Erstellung der Seite / Statistik(en) / Tabelle(n) erforderte 5 Datenbankserver-Abfrage(n) und dauerte 100 Millisekunden. (Dieser Messwert ist von der Gesamt-Auslastung des Servers abhängig.)
Erzgebirge - Wetter | Erzgebirge - Wetter (Mobilgeräte) | Komplette Klimadatenbank